Time;durP1;ratioP1;P1;durP2;ratioP2;P2;SDS_P1;SDS_P2;PMS_P1;PMS_P2;Temp;Humidity;BMP_temperature;BMP_pressure;BME280_temperature;BME280_humidity;BME280_pressure;Samples;Min_cycle;Max_cycle;Signal;HPM_P1;HPM_P2
2022/10/30 00:02:04;;;;;;;0.00;0.00;;;;;;;11.65;100.00;101626.47;10449922;28;20354;-75
2022/10/30 00:07:04;;;;;;;0.10;0.10;;;;;;;11.73;100.00;101645.28;10408121;28;20087;-75
2022/10/30 00:12:04;;;;;;;0.10;0.10;;;;;;;11.86;100.00;101633.44;10406970;28;20072;-75
2022/10/30 00:17:05;;;;;;;0.10;0.10;;;;;;;11.90;100.00;101642.84;10408041;28;20452;-75
2022/10/30 00:22:05;;;;;;;0.10;0.10;;;;;;;11.87;100.00;101629.78;10407055;28;20029;-75
2022/10/30 00:27:06;;;;;;;0.10;0.10;;;;;;;11.90;100.00;101626.84;10426432;28;20104;-75
2022/10/30 00:32:06;;;;;;;0.10;0.10;;;;;;;11.94;100.00;101620.19;10439239;28;20014;-75
2022/10/30 00:37:07;;;;;;;0.10;0.10;;;;;;;11.92;100.00;101616.84;10411984;28;20490;-74
2022/10/30 00:42:12;;;;;;;0.00;0.00;;;;;;;11.94;100.00;101620.19;10414137;28;20033;-75
2022/10/30 00:47:15;;;;;;;0.10;0.10;;;;;;;11.90;100.00;101613.50;10413424;28;20025;-75
2022/10/30 00:52:16;;;;;;;0.10;0.10;;;;;;;11.93;100.00;101594.50;10411072;28;20021;-74
2022/10/30 00:57:18;;;;;;;0.10;0.10;;;;;;;11.96;100.00;101597.72;10432017;28;20020;-74
2022/10/30 01:02:20;;;;;;;0.10;0.10;;;;;;;11.98;100.00;101592.19;10456670;28;20029;-73
2022/10/30 01:07:20;;;;;;;0.10;0.10;;;;;;;12.07;100.00;101588.66;10453434;28;20375;-76
2022/10/30 01:12:20;;;;;;;0.10;0.10;;;;;;;12.06;100.00;101592.31;10413430;28;20028;-74
2022/10/30 01:17:39;;;;;;;0.10;0.10;;;;;;;11.91;100.00;101589.31;10395237;28;20017;-76
2022/10/30 01:22:55;;;;;;;0.10;0.10;;;;;;;11.76;100.00;101586.25;10412955;28;20025;-75
2022/10/30 01:28:05;;;;;;;0.00;0.00;;;;;;;11.76;100.00;101591.59;10437834;28;20041;-75
2022/10/30 01:33:08;;;;;;;0.00;0.00;;;;;;;11.83;100.00;101591.84;10435002;28;20127;-75
2022/10/30 01:38:17;;;;;;;0.08;0.08;;;;;;;11.92;100.00;101587.47;10452188;28;20025;-75
2022/10/30 01:43:18;;;;;;;0.10;0.10;;;;;;;12.07;100.00;101591.34;10453963;28;20021;-75
2022/10/30 01:48:21;;;;;;;0.10;0.10;;;;;;;12.18;100.00;101582.25;10453382;28;20386;-75
2022/10/30 01:53:29;;;;;;;0.10;0.10;;;;;;;12.20;100.00;101574.94;10453555;28;20112;-76
2022/10/30 01:58:40;;;;;;;0.00;0.00;;;;;;;12.16;100.00;101571.72;10424034;28;20457;-75
2022/10/30 02:03:40;;;;;;;0.10;0.10;;;;;;;12.11;100.00;101571.34;10412910;28;20041;-75
2022/10/30 02:08:40;;;;;;;0.10;0.10;;;;;;;12.05;100.00;101568.44;10414061;28;20052;-76
2022/10/30 02:13:41;;;;;;;0.10;0.10;;;;;;;12.01;100.00;101565.19;10417414;28;20018;-75
2022/10/30 02:18:41;;;;;;;0.10;0.10;;;;;;;11.99;100.00;101568.03;10410673;28;20021;-75
2022/10/30 02:23:42;;;;;;;0.10;0.10;;;;;;;11.97;100.00;101574.50;10430226;28;20033;-75
2022/10/30 02:28:42;;;;;;;0.10;0.10;;;;;;;11.88;100.00;101562.91;10461972;22;20125;-74
2022/10/30 02:33:44;;;;;;;0.03;0.03;;;;;;;11.79;100.00;101567.28;10483293;28;20063;-74
2022/10/30 02:38:45;;;;;;;0.10;0.10;;;;;;;11.79;100.00;101569.09;10491227;28;20025;-74
2022/10/30 02:43:45;;;;;;;0.10;0.10;;;;;;;11.78;100.00;101576.28;10492887;28;20024;-74
2022/10/30 02:48:45;;;;;;;0.10;0.10;;;;;;;11.71;100.00;101569.84;10482387;28;21034;-74
2022/10/30 02:53:48;;;;;;;0.10;0.10;;;;;;;11.67;100.00;101575.63;10451757;28;20158;-74
2022/10/30 02:58:48;;;;;;;0.10;0.10;;;;;;;11.60;100.00;101578.03;10480784;28;20369;-74
2022/10/30 03:03:49;;;;;;;0.10;0.10;;;;;;;11.58;100.00;101580.03;10492163;28;20111;-74
2022/10/30 03:08:50;;;;;;;0.00;0.00;;;;;;;11.50;100.00;101583.44;10490739;28;20031;-73
2022/10/30 03:13:50;;;;;;;0.00;0.00;;;;;;;11.42;100.00;101590.47;10492955;28;20038;-75
2022/10/30 03:18:51;;;;;;;0.10;0.10;;;;;;;11.33;100.00;101587.69;10490500;28;20472;-75
2022/10/30 03:23:53;;;;;;;0.10;0.10;;;;;;;11.24;100.00;101593.06;10491250;28;20672;-75
2022/10/30 03:28:53;;;;;;;0.10;0.10;;;;;;;11.15;100.00;101589.44;10474120;28;20024;-74
2022/10/30 03:33:53;;;;;;;0.10;0.10;;;;;;;11.05;100.00;101588.59;10461502;28;20066;-74
2022/10/30 03:38:54;;;;;;;0.00;0.00;;;;;;;10.94;100.00;101589.63;10448303;28;20029;-74
2022/10/30 03:43:54;;;;;;;0.10;0.10;;;;;;;10.83;100.00;101593.28;10448447;28;20065;-74
2022/10/30 03:48:54;;;;;;;0.10;0.10;;;;;;;10.73;100.00;101588.94;10447643;28;20013;-74
2022/10/30 03:53:54;;;;;;;0.00;0.00;;;;;;;10.72;100.00;101584.59;10448940;28;20020;-74
2022/10/30 03:58:55;;;;;;;0.10;0.10;;;;;;;10.70;100.00;101582.06;10475202;28;20030;-74
2022/10/30 04:03:55;;;;;;;0.10;0.10;;;;;;;10.71;100.00;101583.78;10490530;28;20028;-74
2022/10/30 04:08:55;;;;;;;0.10;0.10;;;;;;;10.76;100.00;101591.31;10482640;28;20475;-74
2022/10/30 04:13:55;;;;;;;0.10;0.10;;;;;;;10.75;100.00;101585.16;10448458;28;20021;-74
2022/10/30 04:18:56;;;;;;;0.10;0.10;;;;;;;10.77;100.00;101582.38;10447168;28;20375;-74
2022/10/30 04:23:57;;;;;;;0.05;0.05;;;;;;;10.79;100.00;101575.91;10449499;28;20040;-74
2022/10/30 04:28:57;;;;;;;0.10;0.10;;;;;;;10.91;100.00;101583.72;10474074;28;20164;-74
2022/10/30 04:33:57;;;;;;;0.10;0.10;;;;;;;11.15;100.00;101593.94;10488065;28;20108;-74
2022/10/30 04:38:59;;;;;;;0.00;0.00;;;;;;;11.16;100.00;101593.78;10488504;28;20020;-74
2022/10/30 04:43:59;;;;;;;0.10;0.10;;;;;;;11.08;100.00;101594.53;10486027;28;20090;-74
2022/10/30 04:48:59;;;;;;;0.00;0.00;;;;;;;11.04;100.00;101589.59;10482541;28;20021;-74
2022/10/30 04:54:00;;;;;;;0.10;0.10;;;;;;;11.01;100.00;101589.91;10461414;28;20029;-74
2022/10/30 04:59:00;;;;;;;0.10;0.10;;;;;;;10.94;100.00;101591.44;10475383;28;20020;-74
2022/10/30 05:04:01;;;;;;;0.10;0.10;;;;;;;10.88;100.00;101590.22;10489515;28;20498;-74
2022/10/30 05:09:02;;;;;;;0.10;0.10;;;;;;;10.82;100.00;101591.63;10488344;28;20434;-74
2022/10/30 05:14:02;;;;;;;0.00;0.00;;;;;;;10.79;100.00;101588.38;10489133;28;20108;-74
2022/10/30 05:19:02;;;;;;;0.10;0.10;;;;;;;10.81;100.00;101592.56;10488570;28;20024;-75
2022/10/30 05:24:03;;;;;;;0.05;0.05;;;;;;;10.83;100.00;101593.28;10486035;28;20029;-74
2022/10/30 05:29:03;;;;;;;0.00;0.00;;;;;;;10.84;100.00;101594.13;10482446;28;20387;-74
2022/10/30 05:34:03;;;;;;;0.10;0.10;;;;;;;10.75;100.00;101592.31;10496573;28;20383;-74
2022/10/30 05:39:04;;;;;;;0.10;0.10;;;;;;;10.66;100.00;101604.66;10495832;28;20020;-74
2022/10/30 05:44:04;;;;;;;0.00;0.00;;;;;;;10.62;100.00;101608.59;10496162;28;20115;-74
2022/10/30 05:49:04;;;;;;;0.10;0.10;;;;;;;10.62;100.00;101614.75;10454135;28;20495;-74
2022/10/30 05:54:05;;;;;;;0.10;0.10;;;;;;;10.63;100.00;101615.59;10462211;28;20383;-74
2022/10/30 05:59:05;;;;;;;0.10;0.10;;;;;;;10.61;100.00;101617.56;10480028;28;20016;-74
2022/10/30 06:04:05;;;;;;;0.10;0.10;;;;;;;10.50;100.00;101610.56;10479055;28;20106;-74
2022/10/30 06:09:06;;;;;;;0.10;0.10;;;;;;;10.46;100.00;101617.13;10478243;28;20525;-74
2022/10/30 06:14:06;;;;;;;0.10;0.10;;;;;;;10.47;100.00;101613.50;10470392;28;20021;-73
2022/10/30 06:19:06;;;;;;;0.10;0.10;;;;;;;10.50;100.00;101617.69;10452561;28;20017;-73
2022/10/30 06:24:07;;;;;;;0.10;0.10;;;;;;;10.52;100.00;101619.22;10452441;28;20033;-73
2022/10/30 06:29:07;;;;;;;0.10;0.10;;;;;;;10.61;100.00;101622.88;10481136;28;20022;-73
2022/10/30 06:34:07;;;;;;;0.10;0.10;;;;;;;10.75;100.00;101613.63;10484718;28;20020;-73
2022/10/30 06:39:08;;;;;;;0.10;0.10;;;;;;;10.86;100.00;101632.97;10492283;28;20274;-73
2022/10/30 06:44:08;;;;;;;0.10;0.10;;;;;;;10.99;100.00;101626.50;10493099;28;20475;-73
2022/10/30 06:49:08;;;;;;;0.10;0.10;;;;;;;11.15;100.00;101631.28;10492875;28;20375;-74
2022/10/30 06:54:08;;;;;;;0.00;0.00;;;;;;;11.28;100.00;101635.28;10491830;28;20021;-73
2022/10/30 06:59:09;;;;;;;0.10;0.10;;;;;;;11.44;100.00;101645.38;10474481;28;20025;-74
2022/10/30 07:04:09;;;;;;;0.10;0.10;;;;;;;11.59;100.00;101643.06;10492520;28;20432;-73
2022/10/30 07:09:10;;;;;;;0.10;0.10;;;;;;;11.67;100.00;101647.69;10483349;28;20467;-74
2022/10/30 07:14:11;;;;;;;0.10;0.10;;;;;;;11.76;100.00;101649.47;10464065;28;20024;-74
2022/10/30 07:19:11;;;;;;;0.10;0.10;;;;;;;11.94;100.00;101665.59;10450048;28;20021;-74
2022/10/30 07:24:11;;;;;;;0.10;0.10;;;;;;;12.10;100.00;101667.59;10448211;28;20039;-74
2022/10/30 07:29:11;;;;;;;0.10;0.10;;;;;;;12.30;100.00;101679.03;10468701;28;20021;-74
2022/10/30 07:34:12;;;;;;;0.00;0.00;;;;;;;12.47;100.00;101675.53;10490804;28;20024;-74
2022/10/30 07:39:12;;;;;;;0.00;0.00;;;;;;;12.57;100.00;101679.00;10451186;28;20147;-74
2022/10/30 07:44:12;;;;;;;0.00;0.00;;;;;;;12.94;100.00;101678.00;10448867;28;20033;-74
2022/10/30 07:49:13;;;;;;;0.00;0.00;;;;;;;13.00;100.00;101684.56;10448161;28;20050;-74
2022/10/30 07:54:13;;;;;;;0.00;0.00;;;;;;;12.95;100.00;101684.22;10449373;28;20092;-74
2022/10/30 07:59:14;;;;;;;0.10;0.10;;;;;;;13.50;100.00;101689.34;10479394;28;20016;-74
2022/10/30 08:04:14;;;;;;;0.10;0.10;;;;;;;14.73;100.00;101704.13;10491389;28;20530;-74
2022/10/30 08:09:14;;;;;;;0.10;0.10;;;;;;;15.39;100.00;101694.25;10483679;28;20023;-75
2022/10/30 08:14:14;;;;;;;0.10;0.10;;;;;;;15.59;100.00;101697.38;10458230;28;20390;-74
2022/10/30 08:19:15;;;;;;;0.10;0.10;;;;;;;16.30;100.00;101709.94;10446620;28;20021;-75
2022/10/30 08:24:15;;;;;;;0.10;0.10;;;;;;;16.86;100.00;101707.13;10485975;28;20459;-75
2022/10/30 08:29:15;;;;;;;0.00;0.00;;;;;;;17.16;100.00;101716.16;10469603;28;20475;-75
2022/10/30 08:34:16;;;;;;;0.00;0.00;;;;;;;17.47;100.00;101712.50;10518818;22;20040;-77
2022/10/30 08:39:17;;;;;;;0.10;0.10;;;;;;;17.67;100.00;101704.75;10513974;28;20108;-77
2022/10/30 08:44:17;;;;;;;0.10;0.10;;;;;;;18.03;100.00;101714.81;10495559;28;20020;-77
2022/10/30 08:49:17;;;;;;;0.00;0.00;;;;;;;18.23;100.00;101712.38;10453578;28;20115;-77
2022/10/30 08:54:18;;;;;;;0.10;0.10;;;;;;;18.39;100.00;101712.19;10485761;28;20021;-77
2022/10/30 08:59:18;;;;;;;0.10;0.10;;;;;;;18.46;100.00;101712.25;10486961;28;20081;-77
2022/10/30 09:04:18;;;;;;;0.00;0.00;;;;;;;18.43;100.00;101715.31;10455867;28;20020;-80
2022/10/30 09:09:19;;;;;;;0.00;0.00;;;;;;;18.33;100.00;101719.16;10454807;28;20112;-77
2022/10/30 09:14:19;;;;;;;0.00;0.00;;;;;;;18.31;100.00;101709.59;10471104;28;20107;-78
2022/10/30 09:19:19;;;;;;;0.10;0.10;;;;;;;18.29;100.00;101711.63;10477950;28;20116;-78
2022/10/30 09:24:20;;;;;;;0.10;0.10;;;;;;;18.31;100.00;101723.06;10479367;28;20035;-78
2022/10/30 09:29:20;;;;;;;0.00;0.00;;;;;;;18.33;100.00;101716.47;10479091;28;20032;-77
2022/10/30 09:34:21;;;;;;;0.00;0.00;;;;;;;18.26;100.00;101717.41;10477171;28;20149;-77
2022/10/30 09:39:21;;;;;;;0.10;0.10;;;;;;;18.25;100.00;101721.97;10464604;28;20375;-79
2022/10/30 09:44:28;;;;;;;0.00;0.00;;;;;;;18.27;100.00;101721.78;10486955;28;20020;-80
2022/10/30 09:49:42;;;;;;;0.00;0.00;;;;;;;18.29;100.00;101709.75;10509991;28;20020;-81
2022/10/30 09:54:45;;;;;;;0.10;0.10;;;;;;;18.32;100.00;101711.25;10492278;28;20248;-80
2022/10/30 10:00:10;;;;;;;0.00;0.00;;;;;;;18.33;100.00;101704.84;10489223;28;20092;-81
2022/10/30 10:05:20;;;;;;;0.00;0.00;;;;;;;18.27;100.00;101709.13;10487941;28;20112;-80
2022/10/30 10:10:37;;;;;;;0.00;0.00;;;;;;;18.19;100.00;101711.09;10448247;28;20541;-80
2022/10/30 10:15:42;;;;;;;0.00;0.00;;;;;;;18.16;100.00;101714.16;10495658;28;20025;-78
2022/10/30 10:20:46;;;;;;;0.00;0.00;;;;;;;18.10;100.00;101711.19;10480275;28;20119;-79
2022/10/30 10:25:52;;;;;;;0.10;0.10;;;;;;;18.14;100.00;101711.66;10471291;28;20050;-77
2022/10/30 10:31:18;;;;;;;0.10;0.10;;;;;;;18.11;100.00;101709.31;10477013;28;20032;-78
2022/10/30 10:36:29;;;;;;;0.00;0.00;;;;;;;18.13;100.00;101717.25;10503876;28;20028;-79
2022/10/30 10:41:51;;;;;;;0.05;0.05;;;;;;;18.14;100.00;101708.13;10483926;28;20017;-80
2022/10/30 10:47:00;;;;;;;0.00;0.00;;;;;;;18.22;100.00;101718.81;10495332;28;20027;-80
2022/10/30 10:52:07;;;;;;;0.10;0.10;;;;;;;18.17;100.00;101715.81;10492283;28;20059;-79
2022/10/30 10:57:16;;;;;;;0.00;0.00;;;;;;;18.18;100.00;101710.25;10486339;28;20029;-78
2022/10/30 11:02:32;;;;;;;0.10;0.10;;;;;;;18.18;100.00;101712.09;10475153;28;20055;-78
2022/10/30 11:07:43;;;;;;;0.00;0.00;;;;;;;18.14;100.00;101717.03;10454001;28;20051;-78
2022/10/30 11:12:44;;;;;;;0.00;0.00;;;;;;;18.07;100.00;101713.44;10451470;28;20031;-79
2022/10/30 11:17:57;;;;;;;0.03;0.03;;;;;;;18.01;100.00;101696.16;10505586;28;20059;-79
2022/10/30 11:22:57;;;;;;;0.00;0.00;;;;;;;18.02;100.00;101699.66;10472182;28;20028;-80
2022/10/30 11:27:59;;;;;;;0.10;0.10;;;;;;;18.03;100.00;101707.56;10475412;28;20755;-80
2022/10/30 11:33:21;;;;;;;0.00;0.00;;;;;;;18.00;100.00;101702.53;10495628;28;20047;-79
2022/10/30 11:38:25;;;;;;;0.00;0.00;;;;;;;17.98;100.00;101704.59;10461756;28;20402;-79
2022/10/30 11:43:26;;;;;;;0.08;0.08;;;;;;;17.97;100.00;101708.31;10460901;28;20077;-79
2022/10/30 11:48:29;;;;;;;0.00;0.00;;;;;;;17.96;100.00;101703.94;10478041;28;20017;-80
2022/10/30 11:53:33;;;;;;;;;;;;;;;18.02;100.00;101700.50;10461228;28;20031;-79
2022/10/30 11:58:37;;;;;;;0.00;0.00;;;;;;;18.11;100.00;101695.84;10447661;28;20344;-77
2022/10/30 12:03:40;;;;;;;0.00;0.00;;;;;;;18.20;100.00;101710.06;10474105;28;20021;-79
2022/10/30 12:08:40;;;;;;;0.00;0.00;;;;;;;18.24;100.00;101697.91;10456416;28;20025;-77
2022/10/30 12:13:41;;;;;;;0.00;0.00;;;;;;;18.24;100.00;101700.59;10474200;28;20017;-78
2022/10/30 12:18:53;;;;;;;0.00;0.00;;;;;;;18.29;100.00;101685.47;10482400;28;20028;-77
2022/10/30 12:24:05;;;;;;;0.00;0.00;;;;;;;18.29;100.00;101681.97;10493632;28;20263;-80
2022/10/30 12:29:15;;;;;;;0.00;0.00;;;;;;;18.34;100.00;101684.94;10493769;28;20016;-80
2022/10/30 12:34:33;;;;;;;0.00;0.00;;;;;;;18.37;100.00;101686.41;10495674;28;20024;-80
2022/10/30 12:39:39;;;;;;;0.10;0.10;;;;;;;18.37;100.00;101692.63;10495565;28;20398;-80
2022/10/30 12:44:47;;;;;;;0.10;0.10;;;;;;;18.37;100.00;101692.63;10495625;28;20150;-79
2022/10/30 12:49:51;;;;;;;0.00;0.00;;;;;;;18.39;100.00;101684.38;10479776;28;20017;-78
2022/10/30 12:55:04;;;;;;;0.10;0.10;;;;;;;18.41;100.00;101688.53;10505294;28;20365;-80
2022/10/30 13:00:13;;;;;;;;;;;;;;;18.42;100.00;101697.47;10491940;28;20021;-78
2022/10/30 13:05:38;;;;;;;0.08;0.08;;;;;;;18.43;100.00;101689.19;10469039;28;19909;-80
2022/10/30 13:10:44;;;;;;;0.00;0.00;;;;;;;18.39;100.00;101689.78;10509154;28;20063;-78
2022/10/30 13:15:49;;;;;;;0.00;0.00;;;;;;;18.41;100.00;101696.63;10464020;28;20032;-80
2022/10/30 13:21:06;;;;;;;0.00;0.00;;;;;;;18.42;100.00;101695.63;10489779;28;20027;-80
2022/10/30 13:26:16;;;;;;;0.10;0.10;;;;;;;18.44;100.00;101681.91;10486848;28;20024;-80
2022/10/30 13:31:29;;;;;;;0.00;0.00;;;;;;;18.42;100.00;101670.50;10507653;28;20329;-80
2022/10/30 13:36:41;;;;;;;0.00;0.00;;;;;;;18.42;100.00;101665.94;10503929;28;20028;-80
2022/10/30 13:42:01;;;;;;;0.10;0.10;;;;;;;18.46;100.00;101663.69;10494222;28;20100;-78
2022/10/30 13:47:20;;;;;;;0.10;0.10;;;;;;;18.44;100.00;101663.03;10471168;28;20368;-80
2022/10/30 13:52:22;;;;;;;0.10;0.10;;;;;;;18.40;100.00;101665.28;10485115;28;20080;-80
2022/10/30 13:57:37;;;;;;;0.10;0.10;;;;;;;18.37;100.00;101660.28;10509516;28;20025;-80
2022/10/30 14:02:53;;;;;;;0.10;0.10;;;;;;;18.35;100.00;101670.41;10469485;28;20024;-80
2022/10/30 14:08:03;;;;;;;0.00;0.00;;;;;;;18.32;100.00;101678.88;10480082;28;20021;-80
2022/10/30 14:13:13;;;;;;;0.00;0.00;;;;;;;18.27;100.00;101684.03;10477276;28;20064;-79
2022/10/30 14:18:13;;;;;;;0.00;0.00;;;;;;;18.22;100.00;101678.34;10465163;28;20035;-78
2022/10/30 14:23:26;;;;;;;0.10;0.10;;;;;;;18.16;100.00;101679.94;10508057;28;20043;-79
2022/10/30 14:28:27;;;;;;;0.00;0.00;;;;;;;18.08;100.00;101672.78;10508596;28;20029;-79
2022/10/30 14:33:39;;;;;;;0.00;0.00;;;;;;;17.99;100.00;101671.22;10535669;22;20044;-90
2022/10/30 14:38:39;;;;;;;0.00;0.00;;;;;;;17.86;100.00;101671.91;10491445;28;20020;-90
2022/10/30 14:43:50;;;;;;;0.00;0.00;;;;;;;17.73;100.00;101660.06;10467578;28;20021;-90
2022/10/30 14:49:04;;;;;;;0.00;0.00;;;;;;;17.59;100.00;101667.09;10475586;28;20045;-90
2022/10/30 14:54:30;;;;;;;0.00;0.00;;;;;;;17.34;100.00;101651.22;10475438;28;20097;-90
2022/10/30 14:59:32;;;;;;;0.10;0.10;;;;;;;17.18;100.00;101657.56;10477666;28;20119;-89
2022/10/30 15:05:23;;;;;;;0.00;0.00;;;;;;;16.95;100.00;101659.47;10476856;28;20063;-88
2022/10/30 15:10:31;;;;;;;0.03;0.03;;;;;;;16.70;100.00;101643.50;10394428;28;20060;-89
2022/10/30 15:15:31;;;;;;;0.10;0.10;;;;;;;16.50;100.00;101647.69;10474966;28;20032;-89
2022/10/30 15:20:33;;;;;;;0.10;0.10;;;;;;;16.26;100.00;101645.94;10460364;28;20024;-89
2022/10/30 15:25:42;;;;;;;0.10;0.10;;;;;;;16.06;100.00;101643.72;10477506;28;20377;-89
2022/10/30 15:31:06;;;;;;;0.00;0.00;;;;;;;15.89;100.00;101646.66;10459294;28;20029;-89
2022/10/30 15:36:33;;;;;;;0.00;0.00;;;;;;;15.69;100.00;101655.09;10489649;28;20017;-93
2022/10/30 15:41:41;;;;;;;0.00;0.00;;;;;;;15.48;100.00;101646.75;10498448;28;20016;-93
2022/10/30 15:46:46;;;;;;;0.10;0.10;;;;;;;15.27;100.00;101645.44;10508175;28;20084;-93
2022/10/30 15:51:47;;;;;;;0.10;0.10;;;;;;;15.21;100.00;101658.69;10497038;28;20023;-91
2022/10/30 15:56:52;;;;;;;0.05;0.05;;;;;;;15.00;100.00;101665.41;10501052;28;20020;-92
2022/10/30 16:01:54;;;;;;;0.00;0.00;;;;;;;14.73;100.00;101636.25;10504685;28;20020;-93
2022/10/30 16:07:00;;;;;;;0.10;0.10;;;;;;;14.57;100.00;101651.28;10511183;28;20040;-92
2022/10/30 16:12:00;;;;;;;0.10;0.10;;;;;;;14.38;100.00;101649.72;10485355;28;20043;-92
2022/10/30 16:17:01;;;;;;;0.10;0.10;;;;;;;14.29;100.00;101661.44;10473257;28;20515;-92
2022/10/30 16:22:02;;;;;;;0.10;0.10;;;;;;;14.04;100.00;101652.47;10474706;28;20622;-93
2022/10/30 16:27:17;;;;;;;0.10;0.10;;;;;;;13.95;100.00;101664.16;10472117;28;20031;-93
2022/10/30 16:32:23;;;;;;;0.10;0.10;;;;;;;13.72;100.00;101651.31;10494280;28;20031;-92
2022/10/30 16:37:30;;;;;;;0.00;0.00;;;;;;;13.63;100.00;101664.81;10493075;28;20037;-92
2022/10/30 16:42:32;;;;;;;0.00;0.00;;;;;;;13.42;100.00;101649.97;10497772;28;20001;-91
2022/10/30 16:47:37;;;;;;;0.10;0.10;;;;;;;13.45;100.00;101655.03;10488230;28;20029;-93
2022/10/30 16:52:38;;;;;;;0.10;0.10;;;;;;;13.29;100.00;101644.19;10517608;28;20024;-93
2022/10/30 16:57:44;;;;;;;0.08;0.08;;;;;;;13.22;100.00;101656.50;10510727;28;20052;-92
2022/10/30 17:02:47;;;;;;;0.00;0.00;;;;;;;13.13;100.00;101643.06;10511490;28;20028;-94
2022/10/30 17:07:59;;;;;;;0.00;0.00;;;;;;;13.11;100.00;101661.09;10512171;28;20060;-92
2022/10/30 17:13:31;;;;;;;0.00;0.00;;;;;;;13.05;100.00;101675.09;10514577;28;20028;-92
2022/10/30 17:18:32;;;;;;;0.10;0.10;;;;;;;12.81;100.00;101662.34;10520297;28;20025;-93
2022/10/30 17:23:34;;;;;;;0.00;0.00;;;;;;;12.68;100.00;101656.53;10498050;28;20108;-93
2022/10/30 17:28:35;;;;;;;0.10;0.10;;;;;;;12.67;100.00;101669.06;10502224;28;20250;-93
2022/10/30 17:33:36;;;;;;;0.10;0.10;;;;;;;12.52;100.00;101654.56;10508797;28;20428;-92
2022/10/30 17:38:37;;;;;;;0.10;0.10;;;;;;;12.51;100.00;101663.59;10496232;28;20048;-93
2022/10/30 17:43:49;;;;;;;0.10;0.10;;;;;;;12.41;100.00;101657.44;10499207;28;20040;-94
2022/10/30 17:48:50;;;;;;;0.10;0.10;;;;;;;12.38;100.00;101679.13;10494369;28;20021;-93
2022/10/30 17:53:56;;;;;;;0.10;0.10;;;;;;;12.34;100.00;101683.09;10501007;28;20036;-91
2022/10/30 17:59:00;;;;;;;0.10;0.10;;;;;;;12.21;100.00;101686.09;10505985;28;20086;-92
2022/10/30 18:04:00;;;;;;;0.10;0.10;;;;;;;12.19;100.00;101691.63;10508976;28;20025;-92
2022/10/30 18:09:00;;;;;;;0.10;0.10;;;;;;;12.27;100.00;101703.38;10490676;28;20029;-93
2022/10/30 18:14:01;;;;;;;0.10;0.10;;;;;;;12.16;100.00;101694.59;10475896;28;20255;-92
2022/10/30 18:19:01;;;;;;;0.00;0.00;;;;;;;12.17;100.00;101693.59;10475489;28;20036;-93
2022/10/30 18:24:02;;;;;;;0.10;0.10;;;;;;;12.20;100.00;101693.28;10482541;28;20051;-93
2022/10/30 18:29:03;;;;;;;0.10;0.10;;;;;;;12.24;100.00;101700.00;10500890;28;20262;-95
2022/10/30 18:34:08;;;;;;;0.00;0.00;;;;;;;12.32;100.00;101701.94;10511227;28;20036;-94
2022/10/30 18:39:11;;;;;;;0.10;0.10;;;;;;;12.12;100.00;101695.84;10518588;28;20021;-93
2022/10/30 18:44:17;;;;;;;0.00;0.00;;;;;;;11.99;100.00;101698.03;10520534;28;20424;-93
2022/10/30 18:49:19;;;;;;;0.00;0.00;;;;;;;11.95;100.00;101715.31;10503580;28;20013;-93
2022/10/30 18:54:19;;;;;;;0.10;0.10;;;;;;;11.81;100.00;101705.06;10507980;28;20060;-93
2022/10/30 18:59:20;;;;;;;0.10;0.10;;;;;;;11.66;100.00;101699.38;10489617;28;20033;-93
2022/10/30 19:04:21;;;;;;;0.10;0.10;;;;;;;11.62;100.00;101709.50;10513596;28;20043;-94
2022/10/30 19:09:21;;;;;;;0.00;0.00;;;;;;;11.49;100.00;101700.94;10506995;28;20025;-93
2022/10/30 19:14:22;;;;;;;0.10;0.10;;;;;;;11.29;100.00;101687.66;10518689;28;20087;-93
2022/10/30 19:19:23;;;;;;;0.10;0.10;;;;;;;11.26;100.00;101690.63;10510021;28;20025;-92
2022/10/30 19:24:23;;;;;;;0.10;0.10;;;;;;;11.18;100.00;101690.47;10505732;28;20497;-93
2022/10/30 19:29:23;;;;;;;0.10;0.10;;;;;;;11.05;100.00;101688.13;10499676;28;20100;-92
2022/10/30 19:34:24;;;;;;;0.10;0.10;;;;;;;10.97;100.00;101687.97;10513312;28;20009;-93
2022/10/30 19:39:25;;;;;;;0.10;0.10;;;;;;;10.95;100.00;101697.94;10520635;28;20025;-94
2022/10/30 19:44:25;;;;;;;0.10;0.10;;;;;;;10.82;100.00;101700.00;10522942;28;20070;-93
2022/10/30 19:49:26;;;;;;;0.10;0.10;;;;;;;10.72;100.00;101707.19;10506383;28;20013;-94
2022/10/30 19:54:26;;;;;;;0.10;0.10;;;;;;;10.79;100.00;101727.81;10554661;22;20065;-77
2022/10/30 19:59:27;;;;;;;0.10;0.10;;;;;;;10.78;100.00;101720.78;10546297;28;20090;-77
2022/10/30 20:04:27;;;;;;;0.00;0.00;;;;;;;10.80;100.00;101723.31;10532321;28;20016;-77
2022/10/30 20:09:29;;;;;;;0.10;0.10;;;;;;;10.79;100.00;101737.59;10530957;28;20524;-77
2022/10/30 20:14:30;;;;;;;0.10;0.10;;;;;;;10.73;100.00;101735.50;10545854;28;20019;-77
2022/10/30 20:19:30;;;;;;;0.05;0.05;;;;;;;10.64;100.00;101746.00;10510607;28;20478;-78
2022/10/30 20:24:31;;;;;;;0.10;0.10;;;;;;;10.55;100.00;101751.31;10517145;28;20497;-77
2022/10/30 20:29:32;;;;;;;0.10;0.10;;;;;;;10.41;100.00;101750.72;10544540;28;20019;-77
2022/10/30 20:34:33;;;;;;;0.10;0.10;;;;;;;10.34;100.00;101752.22;10529782;28;20024;-77
2022/10/30 20:39:33;;;;;;;0.10;0.10;;;;;;;10.38;100.00;101751.00;10540378;28;20013;-77
2022/10/30 20:44:33;;;;;;;0.00;0.00;;;;;;;10.40;100.00;101743.69;10542942;28;20115;-77
2022/10/30 20:49:33;;;;;;;0.10;0.10;;;;;;;10.42;100.00;101752.41;10542522;28;20012;-77
2022/10/30 20:54:34;;;;;;;0.10;0.10;;;;;;;10.47;100.00;101753.81;10549850;22;20032;-76
2022/10/30 20:59:34;;;;;;;0.10;0.10;;;;;;;10.48;100.00;101756.34;10568074;28;20099;-76
2022/10/30 21:04:34;;;;;;;0.10;0.10;;;;;;;10.47;100.00;101764.47;10563573;28;20015;-76
2022/10/30 21:09:35;;;;;;;0.10;0.10;;;;;;;10.46;100.00;101754.78;10579928;28;20024;-75
2022/10/30 21:14:35;;;;;;;0.10;0.10;;;;;;;10.46;100.00;101762.78;10580637;28;20025;-75
2022/10/30 21:19:35;;;;;;;0.00;0.00;;;;;;;10.45;100.00;101755.78;10578403;28;20702;-75
2022/10/30 21:24:35;;;;;;;0.10;0.10;;;;;;;10.31;100.00;101757.00;10558437;28;20190;-75
2022/10/30 21:29:36;;;;;;;0.10;0.10;;;;;;;10.20;100.00;101758.72;10554618;28;20651;-75
2022/10/30 21:34:36;;;;;;;0.10;0.10;;;;;;;10.14;100.00;101748.63;10538073;28;20478;-75
2022/10/30 21:39:36;;;;;;;0.00;0.00;;;;;;;10.16;100.00;101749.34;10537926;28;20020;-75
2022/10/30 21:44:37;;;;;;;0.10;0.10;;;;;;;10.28;100.00;101743.94;10538305;28;20027;-75
2022/10/30 21:49:37;;;;;;;0.10;0.10;;;;;;;10.36;100.00;101752.13;10544864;28;20018;-75
2022/10/30 21:54:39;;;;;;;0.10;0.10;;;;;;;10.37;100.00;101753.78;10551607;28;20031;-75
2022/10/30 21:59:39;;;;;;;0.05;0.05;;;;;;;10.38;100.00;101748.34;10557119;28;20130;-75
2022/10/30 22:04:39;;;;;;;0.10;0.10;;;;;;;10.23;100.00;101756.78;10557677;28;20027;-75
2022/10/30 22:09:40;;;;;;;0.10;0.10;;;;;;;10.04;100.00;101753.06;10536167;28;20060;-75
2022/10/30 22:14:40;;;;;;;0.10;0.10;;;;;;;10.04;100.00;101757.56;10537036;28;20020;-75
2022/10/30 22:19:40;;;;;;;0.10;0.10;;;;;;;10.00;100.00;101761.44;10535937;28;20034;-75
2022/10/30 22:24:40;;;;;;;0.05;0.05;;;;;;;10.02;100.00;101760.34;10536370;28;20023;-76
2022/10/30 22:29:41;;;;;;;0.10;0.10;;;;;;;10.04;100.00;101752.22;10536006;28;20024;-75
2022/10/30 22:34:41;;;;;;;0.10;0.10;;;;;;;10.06;100.00;101760.91;10535461;28;20531;-75
2022/10/30 22:39:41;;;;;;;0.10;0.10;;;;;;;10.13;100.00;101765.56;10546181;28;20493;-75
2022/10/30 22:44:41;;;;;;;0.10;0.10;;;;;;;10.18;100.00;101775.81;10559687;28;20114;-76
2022/10/30 22:49:42;;;;;;;0.10;0.10;;;;;;;10.23;100.00;101770.94;10577509;28;20612;-75
2022/10/30 22:54:42;;;;;;;0.00;0.00;;;;;;;10.31;100.00;101776.47;10552388;28;20103;-75
2022/10/30 22:59:42;;;;;;;0.10;0.10;;;;;;;10.35;100.00;101783.19;10534921;28;20111;-75